Terminal Aerodrome Forecast
Issued by NWS

Home | Current Version | Previous Version | Graphics & Text | Print | Product List | Glossary Off
Versions: 1 2 3 4 5 6 7 8 9 10 11 12 13 14 15 16

000
FTUS43 KDDC 211444 AAA
TAFHYS
TAF AMD
KHYS 211444Z 2115/2212 19006KT P6SM SKC
     FM211700 20023G31KT P6SM SKC
     FM220000 18015KT P6SM SKC
     FM220400 18017KT P6SM FEW200 WS020/19050KT=

USA.gov is the U.S. government's official web portal to all federal, state and local government web resources and services.